Flight Track Log - Related Links

Times and Time Zones

All times are in EDT time to prevent confusion due to time zone crossing. See the SWA1711 flight status page for this flight to view local times or setup timezone preferences in your user account.

Time Position Orientation Groundspeed Altitude Reporting Facility
EDT Latitude Longitude Course Direction KTS MPH feet Rate Location/Type
Sat 01:41:15 PM 39.8337 -104.6612 83° East  Level FlightAware Approximate
Sat 01:42:15 PM 39.8026 -104.5132 26° Northeast  Level FlightAware Approximate
Sat 01:43:15 PM 39.7714 -104.3652 311° West  Level FlightAware Approximate
Sat 01:44:10 PM 39.8500 -104.4833 101° East 284 327 9,300  Level Denver TRACON
Sat 01:45:16 PM 39.8333 -104.3667 103° East 346 398 11,100 2,377 Climbing Denver TRACON
Sat 01:46:44 PM 39.7981 -104.1678 111° Southeast 373 429 15,400 2,797 Climbing Denver Center
Sat 01:47:44 PM 39.7575 -104.0286 111° Southeast 393 452 18,000 2,300 Climbing Denver Center
Sat 01:48:44 PM 39.7194 -103.9031 111° Southeast 405 466 20,000 2,150 Climbing Denver Center
Sat 01:49:44 PM 39.6764 -103.7564 111° Southeast 423 487 22,300 2,250 Climbing Denver Center
Sat 01:50:44 PM 39.6311 -103.6072 111° Southeast 436 502 24,500 2,000 Climbing Denver Center
Sat 01:51:44 PM 39.5853 -103.4500 112° Southeast 451 519 26,300 1,750 Climbing Denver Center
Sat 01:52:44 PM 39.5350 -103.2908 112° Southeast 468 539 28,000 1,650 Climbing Denver Center
Sat 01:53:44 PM 39.4822 -103.1183 110° East 468 539 29,600 1,450 Climbing Denver Center
Sat 01:54:44 PM 39.4356 -102.9539 112° Southeast 474 545 30,900 1,500 Climbing Denver Center
Sat 01:55:44 PM 39.3825 -102.7872 112° Southeast 486 559 32,600 1,400 Climbing Denver Center
Sat 01:56:44 PM 39.3358 -102.6394 113° Southeast 491 565 33,700 1,300 Climbing Denver Center
Sat 01:57:44 PM 39.2775 -102.4600 113° Southeast 491 565 35,200 1,300 Climbing Denver Center
Sat 01:58:44 PM 39.2236 -102.2944 111° Southeast 491 565 36,300 900 Climbing Denver Center
Sat 01:59:44 PM 39.1783 -102.1444 112° Southeast 496 571 37,000 350 Climbing Denver Center
Sat 02:00:44 PM 39.1264 -101.9817 112° Southeast 491 565 37,000  Level Denver Center
Sat 02:01:44 PM 39.0692 -101.8006 111° Southeast 491 565 37,000  Level Denver Center
Sat 02:02:44 PM 39.0183 -101.6331 114° Southeast 491 565 37,000  Level Denver Center
Sat 02:03:44 PM 38.9681 -101.4869 112° Southeast 491 565 37,000  Level Denver Center
Sat 02:04:44 PM 38.9150 -101.3225 113° Southeast 491 565 37,000  Level Denver Center
Sat 02:05:44 PM 38.8569 -101.1481 113° Southeast 491 565 37,000  Level Denver Center
Sat 02:07:30 PM 38.7622 -100.8567 114° Southeast 487 560 37,000  Level Kansas City Center
Sat 02:08:30 PM 38.7081 -100.6978 113° Southeast 487 560 37,000  Level Kansas City Center
Sat 02:09:30 PM 38.6592 -100.5500 114° Southeast 492 566 37,000  Level Kansas City Center
Sat 02:10:30 PM 38.6044 -100.3914 113° Southeast 492 566 37,000  Level Kansas City Center
Sat 02:11:30 PM 38.5444 -100.2139 114° Southeast 492 566 37,000  Level Kansas City Center
Sat 02:12:30 PM 38.4875 -100.0503 113° Southeast 492 566 37,000  Level Kansas City Center
Sat 02:13:30 PM 38.4378 -99.9008 114° Southeast 497 572 37,000  Level Kansas City Center
Sat 02:14:30 PM 38.3825 -99.7431 114° Southeast 497 572 37,000  Level Kansas City Center
Sat 02:15:30 PM 38.3192 -99.5611 114° Southeast 497 572 37,000  Level Kansas City Center
Sat 02:16:30 PM 38.2653 -99.4094 113° Southeast 492 566 37,000  Level Kansas City Center
Sat 02:17:30 PM 38.2114 -99.2447 115° Southeast 497 572 37,000  Level Kansas City Center
Sat 02:18:30 PM 38.1508 -99.0822 114° Southeast 497 572 37,000  Level Kansas City Center
Sat 02:19:30 PM 38.0944 -98.9231 115° Southeast 497 572 37,000  Level Kansas City Center
Sat 02:20:30 PM 38.0356 -98.7642 114° Southeast 497 572 37,000  Level Kansas City Center
Sat 02:21:30 PM 37.9786 -98.6000 115° Southeast 497 572 37,000  Level Kansas City Center
Sat 02:22:30 PM 37.9192 -98.4417 114° Southeast 497 572 37,000  Level Kansas City Center
Sat 02:23:30 PM 37.8619 -98.2806 114° Southeast 497 572 37,000  Level Kansas City Center
Sat 02:24:30 PM 37.8081 -98.1308 116° Southeast 504 580 37,000  Level Kansas City Center
Sat 02:25:30 PM 37.7422 -97.9569 115° Southeast 504 580 37,000  Level Kansas City Center
Sat 02:26:30 PM 37.6900 -97.8128 116° Southeast 505 581 37,000  Level Kansas City Center
Sat 02:27:30 PM 37.6219 -97.6367 115° Southeast 505 581 37,000  Level Kansas City Center
Sat 02:28:30 PM 37.5614 -97.4717 115° Southeast 505 581 37,000  Level Kansas City Center
Sat 02:29:30 PM 37.5025 -97.3150 115° Southeast 505 581 37,000  Level Kansas City Center
Sat 02:30:30 PM 37.4436 -97.1533 115° Southeast 505 581 37,000  Level Kansas City Center
Sat 02:31:30 PM 37.3844 -96.9969 116° Southeast 505 581 37,000  Level Kansas City Center
Sat 02:32:30 PM 37.3231 -96.8356 117° Southeast 505 581 37,000  Level Kansas City Center
Sat 02:33:30 PM 37.2614 -96.6825 115° Southeast 500 575 37,000  Level Kansas City Center
Sat 02:34:30 PM 37.2036 -96.5242 114° Southeast 495 570 37,000  Level Kansas City Center
Sat 02:35:30 PM 37.1539 -96.3822 116° Southeast 495 570 37,000  Level Kansas City Center
Sat 02:36:30 PM 37.0936 -96.2244 116° Southeast 495 570 37,000  Level Kansas City Center
Sat 02:37:30 PM 37.0331 -96.0697 117° Southeast 495 570 37,000  Level Kansas City Center
Sat 02:38:30 PM 36.9703 -95.9125 115° Southeast 495 570 37,000  Level Kansas City Center
Sat 02:39:30 PM 36.9094 -95.7528 116° Southeast 495 570 37,000  Level Kansas City Center
Sat 02:40:30 PM 36.8486 -95.5989 116° Southeast 495 570 37,000  Level Kansas City Center
Sat 02:41:30 PM 36.7811 -95.4292 117° Southeast 495 570 37,000  Level Kansas City Center
Sat 02:43:55 PM 36.6269 -95.0522 117° Southeast 504 580 37,000  Level Memphis Center
Sat 02:44:55 PM 36.5636 -94.8986 118° Southeast 504 580 37,000  Level Memphis Center
Sat 02:45:55 PM 36.5003 -94.7481 116° Southeast 504 580 37,000  Level Memphis Center
Sat 02:46:55 PM 36.4389 -94.5950 118° Southeast 504 580 37,000  Level Memphis Center
Sat 02:47:55 PM 36.3753 -94.4447 116° Southeast 499 574 37,000  Level Memphis Center
Sat 02:48:55 PM 36.3156 -94.2925 118° Southeast 499 574 37,000  Level Memphis Center
Sat 02:49:55 PM 36.2511 -94.1453 113° Southeast 494 568 37,000  Level Memphis Center
Sat 02:50:55 PM 36.1975 -93.9886 110° East 489 563 37,000  Level Memphis Center
Sat 02:51:55 PM 36.1519 -93.8322 111° Southeast 477 549 37,000  Level Memphis Center
Sat 02:52:55 PM 36.1039 -93.6786 112° Southeast 477 549 37,000  Level Memphis Center
Sat 02:53:55 PM 36.0539 -93.5225 112° Southeast 477 549 37,000  Level Memphis Center
Sat 02:54:55 PM 36.0033 -93.3717 111° Southeast 477 549 37,000  Level Memphis Center
Sat 02:55:55 PM 35.9550 -93.2161 112° Southeast 482 555 37,000  Level Memphis Center
Sat 02:56:55 PM 35.9061 -93.0633 113° Southeast 482 555 37,000  Level Memphis Center
Sat 02:57:55 PM 35.8553 -92.9131 111° Southeast 482 555 37,000  Level Memphis Center
Sat 02:58:55 PM 35.8081 -92.7631 113° Southeast 477 549 37,000  Level Memphis Center
Sat 02:59:55 PM 35.7567 -92.6158 112° Southeast 477 549 37,000  Level Memphis Center
Sat 03:00:55 PM 35.7072 -92.4661 112° Southeast 477 549 37,000  Level Memphis Center
Sat 03:01:55 PM 35.6633 -92.3322 114° Southeast 472 543 37,000  Level Memphis Center
Sat 03:02:55 PM 35.6114 -92.1856 113° Southeast 472 543 37,000 -150 Level Memphis Center
Sat 03:03:55 PM 35.5594 -92.0364 112° Southeast 472 543 36,700 -700 Descending Memphis Center
Sat 03:04:55 PM 35.5111 -91.8900 114° Southeast 467 537 35,600 -1,550 Descending Memphis Center
Sat 03:05:55 PM 35.4567 -91.7386 112° Southeast 467 537 33,600 -1,950 Descending Memphis Center
Sat 03:06:55 PM 35.4039 -91.5822 113° Southeast 480 552 31,700 -1,300 Descending Memphis Center
Sat 03:07:55 PM 35.3511 -91.4289 112° Southeast 485 558 31,000 -350 Descending Memphis Center
Sat 03:08:55 PM 35.3003 -91.2756 114° Southeast 485 558 31,000  Level Memphis Center
Sat 03:09:55 PM 35.2469 -91.1300 112° Southeast 478 550 31,000  Level Memphis Center
Sat 03:10:55 PM 35.1917 -90.9617 113° Southeast 472 543 31,000  Level Memphis Center
Sat 03:11:55 PM 35.1400 -90.8142 114° Southeast 480 552 31,000 -300 Level Memphis Center
Sat 03:12:55 PM 35.0864 -90.6642 113° Southeast 480 552 30,400 -800 Descending Memphis Center
Sat 03:13:55 PM 35.0344 -90.5144 113° Southeast 479 551 29,400 -1,000 Descending Memphis Center
Sat 03:14:55 PM 34.9803 -90.3622 115° Southeast 485 558 28,400 -1,000 Descending Memphis Center
Sat 03:15:55 PM 34.9258 -90.2178 113° Southeast 479 551 27,400 -700 Descending Memphis Center
Sat 03:16:55 PM 34.8736 -90.0711 115° Southeast 479 551 27,000 -200 Descending Memphis Center
Sat 03:17:55 PM 34.8208 -89.9347 114° Southeast 463 533 27,000  Level Memphis Center
Sat 03:18:55 PM 34.7639 -89.7808 113° Southeast 468 539 27,000  Level Memphis Center
Sat 03:19:55 PM 34.7131 -89.6319 114° Southeast 475 547 27,000 -500 Level Memphis Center
Sat 03:20:55 PM 34.6578 -89.4836 114° Southeast 475 547 26,000 -1,000 Descending Memphis Center
Sat 03:21:55 PM 34.6047 -89.3378 114° Southeast 475 547 25,000 -500 Descending Memphis Center
Sat 03:22:55 PM 34.5511 -89.1922 114° Southeast 475 547 25,000  Level Memphis Center
Sat 03:23:55 PM 34.4975 -89.0492 119° Southeast 475 547 25,000  Level Memphis Center
Sat 03:24:55 PM 34.4314 -88.9067 126° Southeast 482 555 25,000  Level Memphis Center
Sat 03:25:55 PM 34.3547 -88.7797 127° Southeast 476 548 25,000  Level Memphis Center
Sat 03:26:55 PM 34.2736 -88.6506 127° Southeast 476 548 25,000  Level Memphis Center
Sat 03:27:55 PM 34.1925 -88.5192 126° Southeast 481 554 25,000  Level Memphis Center
Sat 03:28:55 PM 34.1131 -88.3878 126° Southeast 481 554 25,000  Level Memphis Center
Sat 03:29:55 PM 34.0358 -88.2592 126° Southeast 481 554 25,000  Level Memphis Center
Sat 03:30:55 PM 33.9628 -88.1383 126° Southeast 481 554 25,000  Level Memphis Center
Sat 03:31:55 PM 33.8769 -87.9978 127° Southeast 486 559 25,000  Level Memphis Center
Sat 03:32:55 PM 33.7992 -87.8725 127° Southeast 480 552 25,000  Level Memphis Center
Sat 03:34:39 PM 33.6681 -87.6606 127° Southeast 474 545 25,000  Level Atlanta Center
Sat 03:35:39 PM 33.5922 -87.5400 127° Southeast 468 539 25,000  Level Atlanta Center
Sat 03:36:39 PM 33.5161 -87.4175 126° Southeast 462 532 25,000  Level Atlanta Center
Sat 03:37:39 PM 33.4403 -87.2925 127° Southeast 462 532 25,000  Level Atlanta Center
Sat 03:38:39 PM 33.3642 -87.1728 127° Southeast 467 537 25,000  Level Atlanta Center
Sat 03:39:39 PM 33.2897 -87.0533 127° Southeast 461 531 25,000  Level Atlanta Center
Sat 03:40:39 PM 33.2214 -86.9442 127° Southeast 461 531 25,000  Level Atlanta Center
Sat 03:41:39 PM 33.1431 -86.8200 150° Southeast 461 531 25,000  Level Atlanta Center
Sat 03:42:39 PM 33.0381 -86.7472 179° South 441 507 25,000  Level Atlanta Center
Sat 03:43:39 PM 32.9131 -86.7458 179° South 428 493 25,000  Level Atlanta Center
Sat 03:44:39 PM 32.7897 -86.7444 177° South 441 507 25,000  Level Atlanta Center
Sat 03:45:39 PM 32.6647 -86.7358 179° South 447 514 25,000  Level Atlanta Center
Sat 03:46:39 PM 32.5417 -86.7344 179° South 455 524 25,000  Level Atlanta Center
Sat 03:47:39 PM 32.4144 -86.7306 179° South 460 529 25,000  Level Atlanta Center
Sat 03:48:39 PM 32.2914 -86.7269 178° South 454 522 25,000  Level Atlanta Center
Sat 03:50:35 PM 32.0503 -86.7186 179° South 432 497 25,000  Level Jacksonville Center
Sat 03:51:35 PM 31.9356 -86.7164 179° South 418 481 25,000  Level Jacksonville Center
Sat 03:52:34 PM 31.8228 -86.7142 178° South 412 474 25,000  Level Jacksonville Center
Sat 03:53:35 PM 31.7083 -86.7094 179° South 412 474 25,000  Level Jacksonville Center
Sat 03:54:35 PM 31.5894 -86.7069 178° South 420 483 25,000  Level Jacksonville Center
Sat 03:55:34 PM 31.4872 -86.7028 179° South 420 483 25,000  Level Jacksonville Center
Sat 03:56:34 PM 31.3703 -86.7003 179° South 420 483 25,000 893 Level Jacksonville Center
Sat 03:57:35 PM 31.2578 -86.6983 180° South 414 476 26,800 1,000 Climbing Jacksonville Center
Sat 03:58:34 PM 31.1450 -86.6986 183° South 414 476 27,000 101 Climbing Jacksonville Center
Sat 03:59:34 PM 31.0425 -86.7042 174° South 414 476 27,000 200 Level Jacksonville Center
Sat 04:00:34 PM 30.9261 -86.6897 179° South 401 461 27,400 1,000 Climbing Jacksonville Center
Sat 04:01:34 PM 30.8133 -86.6875 173° South 402 463 29,000 850 Climbing Jacksonville Center
Sat 04:02:34 PM 30.6886 -86.6706 143° Southeast 408 470 29,100 1,000 Climbing Jacksonville Center
Sat 04:03:34 PM 30.5989 -86.5922 138° Southeast 388 447 31,000 950 Climbing Jacksonville Center
Sat 04:04:34 PM 30.5158 -86.5044 140° Southeast 388 447 31,000  Level Jacksonville Center
Sat 04:05:34 PM 30.4306 -86.4219 135° Southeast 398 458 31,000  Level Jacksonville Center
Sat 04:06:34 PM 30.3497 -86.3297 138° Southeast 404 465 31,000  Level Jacksonville Center
Sat 04:07:34 PM 30.2664 -86.2428 136° Southeast 405 466 31,000  Level Jacksonville Center
Sat 04:08:34 PM 30.1872 -86.1558 133° Southeast 405 466 31,000  Level Jacksonville Center
Sat 04:09:34 PM 30.1103 -86.0594 131° Southeast 405 466 31,000  Level Jacksonville Center
Sat 04:10:34 PM 30.0375 -85.9611 131° Southeast 400 460 31,000  Level Jacksonville Center
Sat 04:11:34 PM 29.9647 -85.8656 132° Southeast 400 460 31,000  Level Jacksonville Center
Sat 04:12:34 PM 29.8897 -85.7697 131° Southeast 400 460 31,000  Level Jacksonville Center
Sat 04:13:34 PM 29.8144 -85.6717 131° Southeast 400 460 31,000  Level Jacksonville Center
Sat 04:14:34 PM 29.7433 -85.5789 132° Southeast 394 453 31,000  Level Jacksonville Center
Sat 04:15:34 PM 29.6683 -85.4836 131° Southeast 394 453 31,000  Level Jacksonville Center
Sat 04:16:34 PM 29.6011 -85.3958 132° Southeast 399 459 31,000  Level Jacksonville Center
Sat 04:17:34 PM 29.5297 -85.3033 132° Southeast 394 453 31,000  Level Jacksonville Center
Sat 04:18:34 PM 29.4542 -85.2083 132° Southeast 394 453 31,000  Level Jacksonville Center
Sat 04:19:34 PM 29.3808 -85.1136 131° Southeast 394 453 31,000  Level Jacksonville Center
Sat 04:20:34 PM 29.3072 -85.0167 133° Southeast 394 453 31,000  Level Jacksonville Center
Sat 04:21:34 PM 29.2317 -84.9247 130° Southeast 394 453 31,000  Level Jacksonville Center
Sat 04:22:34 PM 29.1581 -84.8233 133° Southeast 399 459 31,000  Level Jacksonville Center
Sat 04:23:34 PM 29.0800 -84.7292 131° Southeast 399 459 31,000  Level Jacksonville Center
Sat 04:24:35 PM 29.0042 -84.6306 132° Southeast 399 459 31,000  Level Jacksonville Center
Sat 04:25:34 PM 28.9283 -84.5342 135° Southeast 399 459 31,000  Level Jacksonville Center
Sat 04:27:38 PM 28.7522 -84.3306 140° Southeast 411 473 31,000  Level Miami Center
Sat 04:28:38 PM 28.6647 -84.2467 138° Southeast 416 479 31,000  Level Miami Center
Sat 04:29:38 PM 28.5797 -84.1608 138° Southeast 416 479 31,000  Level Miami Center
Sat 04:30:38 PM 28.4944 -84.0750 137° Southeast 416 479 31,000 -350 Level Miami Center
Sat 04:31:38 PM 28.4114 -83.9872 138° Southeast 416 479 30,300 -1,200 Descending Miami Center
Sat 04:32:38 PM 28.3281 -83.9017 139° Southeast 416 479 28,600 -1,600 Descending Miami Center
Sat 04:33:38 PM 28.2406 -83.8139 136° Southeast 416 479 27,100 -1,100 Descending Miami Center
Sat 04:34:38 PM 28.1594 -83.7242 140° Southeast 416 479 26,400 -1,050 Descending Miami Center
Sat 04:35:38 PM 28.0717 -83.6414 146° Southeast 410 472 25,000 -1,150 Descending Miami Center
Sat 04:36:38 PM 27.9869 -83.5775 146° Southeast 399 459 24,100 -1,000 Descending Miami Center
Sat 04:37:38 PM 27.8983 -83.5089 146° Southeast 385 443 23,000 -800 Descending Miami Center
Sat 04:38:38 PM 27.8139 -83.4453 149° Southeast 380 437 22,500 -1,000 Descending Miami Center
Sat 04:39:38 PM 27.7228 -83.3839 150° Southeast 380 437 21,000 -750 Descending Miami Center
Sat 04:40:38 PM 27.6378 -83.3275 147° Southeast 380 437 21,000  Level Miami Center
Sat 04:41:38 PM 27.5550 -83.2667 144° Southeast 375 432 21,000  Level Miami Center
Sat 04:42:38 PM 27.4703 -83.1964 134° Southeast 375 432 21,000  Level Miami Center
Sat 04:43:38 PM 27.3969 -83.1106 124° Southeast 380 437 21,000  Level Miami Center
Sat 04:44:38 PM 27.3386 -83.0117 125° Southeast 380 437 21,000  Level Miami Center
Sat 04:45:38 PM 27.2781 -82.9128 125° Southeast 380 437 21,000  Level Miami Center
Sat 04:46:38 PM 27.2156 -82.8114 125° Southeast 391 450 21,000  Level Miami Center
Sat 04:47:38 PM 27.1528 -82.7103 125° Southeast 391 450 21,000  Level Miami Center
Sat 04:48:38 PM 27.0922 -82.6114 124° Southeast 391 450 21,000  Level Miami Center
Sat 04:49:38 PM 27.0256 -82.5011 125° Southeast 391 450 21,000  Level Miami Center
Sat 04:50:38 PM 26.9667 -82.4075 114° Southeast 397 457 21,000  Level Miami Center
Sat 04:51:38 PM 26.9208 -82.2933 94° East 403 464 21,000  Level Miami Center
Sat 04:52:38 PM 26.9133 -82.1603 93° East 403 464 21,000  Level Miami Center
Sat 04:53:38 PM 26.9075 -82.0322 91° East 403 464 21,000  Level Miami Center
Sat 04:54:38 PM 26.9061 -81.8947 96° East 422 486 21,000  Level Miami Center
Sat 04:55:38 PM 26.8939 -81.7639 126° Southeast 422 486 21,000  Level Miami Center
Sat 04:56:38 PM 26.8222 -81.6539 131° Southeast 389 448 21,000 -250 Level Miami Center
Sat 04:57:38 PM 26.7500 -81.5625 134° Southeast 389 448 20,500 -750 Descending Miami Center
Sat 04:58:38 PM 26.6858 -81.4878 131° Southeast 377 434 19,500 -950 Descending Miami Center
Sat 04:59:38 PM 26.6156 -81.3967 132° Southeast 382 440 18,600 -1,650 Descending Miami Center
Sat 05:00:38 PM 26.5392 -81.3011 116° Southeast 382 440 16,200 -1,950 Descending Miami Center
Sat 05:01:38 PM 26.5019 -81.2161 112° Southeast 382 440 14,700 -1,800 Descending Miami Center
Sat 05:02:38 PM 26.4594 -81.0986 111° Southeast 377 434 12,600 -1,850 Descending Miami Center
Sat 05:03:38 PM 26.4208 -80.9881 107° East 364 419 11,000 -1,300 Descending Miami Center
Sat 05:04:38 PM 26.3944 -80.8944 112° Southeast 330 380 10,000 -1,250 Descending Miami Center
Sat 05:05:38 PM 26.3653 -80.8122 121° Southeast 295 339 8,500 -1,500 Descending Miami Center
Sat 05:06:38 PM 26.3256 -80.7392 130° Southeast 282 325 7,000 -1,100 Descending Miami Center
Sat 05:07:38 PM 26.2792 -80.6775 140° Southeast 258 297 6,300 -550 Descending Miami Center
Sat 05:08:38 PM 26.2361 -80.6367 146° Southeast 244 281 5,900 -309 Descending Miami Center
Sat 05:09:15 PM 26.1972 -80.6078 151° Southeast 228 262 5,800 -600 Descending Miami Center
Sat 05:09:58 PM 26.1583 -80.5833 117° Southeast 226 260 5,100 -1,157 Descending Miami Center
Sat 05:10:38 PM 26.1425 -80.5481 114° Southeast 223 257 4,200 -840 Descending Miami Center
Sat 05:11:38 PM 26.1150 -80.4803 112° Southeast 212 244 3,700 -650 Descending Miami Center
Sat 05:12:38 PM 26.0953 -80.4264 119° Southeast 201 231 2,900 -447 Descending Miami Center
Sat 05:13:12 PM 26.0814 -80.3983 98° East 183 211 3,000  Climbing Miami Center
Sat 05:14:13 PM 26.0744 -80.3425 91° East 180 207 2,900 -516 Descending Miami Center
Sat 05:15:20 PM 26.0736 -80.2800 85° East 181 208 1,900 -879 Descending Miami Center
Sat 05:16:09 PM 26.0769 -80.2361 95° East 184 212 1,200 -818 Descending Miami Center
Sat 05:17:10 PM 26.0736 -80.1922 95° East 146 168 400 -787 Descending Miami Center

Login

Don't have an account? Register now (free) for customized features, flight alerts, and more!